createdAt,value
2022-12-08T00:04:00.789Z,4.30
2022-12-08T00:09:13.045Z,4.40
2022-12-08T00:14:06.813Z,3.97
2022-12-08T00:19:00.787Z,4.28
2022-12-08T00:23:56.821Z,4.10
2022-12-08T00:28:49.982Z,4.50
2022-12-08T00:33:42.647Z,4.50
2022-12-08T00:38:37.184Z,4.72
2022-12-08T00:43:30.657Z,4.80
2022-12-08T00:48:24.751Z,4.72
2022-12-08T00:53:17.373Z,4.78
2022-12-08T00:58:10.927Z,4.70
2022-12-08T01:03:04.723Z,5.45
2022-12-08T01:07:59.037Z,4.93
2022-12-08T01:12:52.611Z,4.90
2022-12-08T01:17:46.642Z,4.65
2022-12-08T01:22:39.946Z,4.63
2022-12-08T01:27:33.727Z,4.78
2022-12-08T01:32:27.762Z,4.60
2022-12-08T01:37:21.550Z,5.05
2022-12-08T01:42:35.408Z,4.85
2022-12-08T01:47:41.694Z,4.40
2022-12-08T01:52:43.582Z,4.35
2022-12-08T01:57:47.641Z,4.90
2022-12-08T02:02:53.023Z,4.70
2022-12-08T02:07:49.158Z,4.53
2022-12-08T02:12:44.635Z,4.75
2022-12-08T02:17:43.823Z,4.22
2022-12-08T02:22:48.853Z,4.78
2022-12-08T02:28:12.603Z,4.45
2022-12-08T02:33:33.294Z,4.78
2022-12-08T02:39:05.422Z,4.25
2022-12-08T02:44:00.915Z,4.57
2022-12-08T02:48:56.174Z,4.13
2022-12-08T02:53:49.938Z,4.45
2022-12-08T02:59:02.930Z,4.60
2022-12-08T03:04:20.687Z,4.78
2022-12-08T03:09:32.858Z,3.58
2022-12-08T03:14:26.908Z,4.30
2022-12-08T03:19:25.012Z,4.40
2022-12-08T03:24:19.343Z,4.10
2022-12-08T03:29:14.261Z,3.72
2022-12-08T03:34:11.662Z,4.07
2022-12-08T03:39:05.198Z,4.10
2022-12-08T03:44:00.411Z,4.43
2022-12-08T03:48:53.571Z,4.00
2022-12-08T03:53:47.694Z,4.18
2022-12-08T03:58:41.606Z,4.00
2022-12-08T04:03:35.138Z,4.03
2022-12-08T04:08:29.117Z,4.25
2022-12-08T04:13:22.977Z,3.72
2022-12-08T04:18:17.500Z,4.30
2022-12-08T04:23:12.173Z,4.15
2022-12-08T04:28:06.674Z,4.25
2022-12-08T04:33:00.124Z,4.20
2022-12-08T04:37:52.994Z,4.00
2022-12-08T04:42:47.057Z,3.97
2022-12-08T04:47:40.094Z,4.00
2022-12-08T04:52:34.217Z,4.32
2022-12-08T04:57:27.414Z,4.32
2022-12-08T05:02:20.599Z,4.07
2022-12-08T05:07:14.617Z,4.07
2022-12-08T05:12:09.102Z,3.63
2022-12-08T05:17:09.097Z,3.35
2022-12-08T05:22:03.374Z,3.63
2022-12-08T05:26:56.862Z,3.42
2022-12-08T05:31:50.781Z,3.60
2022-12-08T05:36:44.225Z,3.80
2022-12-08T05:41:37.918Z,3.70
2022-12-08T05:46:32.099Z,3.20
2022-12-08T05:51:25.117Z,3.42
2022-12-08T05:56:19.465Z,4.05
2022-12-08T06:01:30.837Z,3.80
2022-12-08T06:06:24.772Z,3.60
2022-12-08T06:11:31.122Z,3.40
2022-12-08T06:16:26.726Z,3.70
2022-12-08T06:21:20.735Z,3.63
2022-12-08T06:26:15.666Z,3.65
2022-12-08T06:31:11.594Z,4.05
2022-12-08T06:36:06.006Z,3.45
2022-12-08T06:41:01.182Z,3.63
2022-12-08T06:45:54.892Z,3.92
2022-12-08T06:50:48.854Z,3.88
2022-12-08T06:55:59.315Z,4.00
2022-12-08T07:00:53.521Z,3.95
2022-12-08T07:05:46.058Z,3.92
2022-12-08T07:10:39.121Z,4.15
2022-12-08T07:15:32.020Z,3.80
2022-12-08T07:20:25.616Z,4.25
2022-12-08T07:25:19.549Z,4.20
2022-12-08T07:30:14.467Z,4.10
2022-12-08T07:35:08.530Z,3.90
2022-12-08T07:40:01.484Z,4.13
2022-12-08T07:44:55.127Z,4.20
2022-12-08T07:49:48.913Z,4.47
2022-12-08T07:54:41.842Z,4.30
2022-12-08T07:59:35.864Z,3.80
2022-12-08T08:04:29.422Z,4.57
2022-12-08T08:09:22.876Z,4.45
2022-12-08T08:14:16.262Z,4.70
2022-12-08T08:19:10.161Z,4.63
2022-12-08T08:24:03.719Z,5.05
2022-12-08T08:28:57.569Z,4.40
2022-12-08T08:33:51.122Z,4.65
2022-12-08T08:38:44.477Z,5.18
2022-12-08T08:43:38.837Z,5.32
2022-12-08T08:48:33.380Z,4.70
2022-12-08T08:53:27.792Z,5.32
2022-12-08T08:58:21.225Z,5.10
2022-12-08T09:03:14.415Z,5.45
2022-12-08T09:08:07.760Z,5.57
2022-12-08T09:13:00.530Z,5.22
2022-12-08T09:17:54.702Z,5.18
2022-12-08T09:22:47.836Z,5.00
2022-12-08T09:27:41.673Z,5.45
2022-12-08T09:32:35.779Z,4.78
2022-12-08T09:37:29.519Z,5.57
2022-12-08T09:42:43.722Z,5.30
2022-12-08T09:47:41.956Z,5.03
2022-12-08T09:52:42.397Z,5.93
2022-12-08T09:57:37.234Z,5.47
2022-12-08T10:02:31.217Z,5.50
2022-12-08T10:07:28.629Z,5.70
2022-12-08T10:12:34.718Z,6.30
2022-12-08T10:17:34.983Z,5.80
2022-12-08T10:22:35.315Z,6.03
2022-12-08T10:27:34.302Z,5.88
2022-12-08T10:32:35.198Z,5.68
2022-12-08T10:37:28.834Z,6.35
2022-12-08T10:42:23.122Z,6.28
2022-12-08T10:47:17.209Z,6.80
2022-12-08T10:52:24.079Z,6.35
2022-12-08T10:57:29.230Z,6.47
2022-12-08T11:02:23.155Z,6.47
2022-12-08T11:07:23.286Z,7.20
2022-12-08T11:12:22.673Z,6.60
2022-12-08T11:17:21.961Z,6.75
2022-12-08T11:22:25.360Z,6.35
2022-12-08T11:27:19.460Z,6.50
2022-12-08T11:32:14.560Z,6.35
2022-12-08T11:37:14.622Z,6.80
2022-12-08T11:42:13.936Z,6.32
2022-12-08T11:47:38.048Z,6.25
2022-12-08T11:52:36.041Z,6.97
2022-12-08T11:57:30.349Z,6.22
2022-12-08T12:02:26.393Z,6.20
2022-12-08T12:07:31.201Z,6.38
2022-12-08T12:12:39.854Z,6.35
2022-12-08T12:17:45.606Z,6.65
2022-12-08T12:22:39.633Z,6.50
2022-12-08T12:27:41.166Z,6.00
2022-12-08T12:32:59.168Z,6.75
2022-12-08T12:37:57.521Z,6.97
2022-12-08T12:42:56.946Z,6.10
2022-12-08T12:47:57.463Z,6.07
2022-12-08T12:52:51.054Z,6.20
2022-12-08T12:57:56.545Z,6.22
2022-12-08T13:02:52.917Z,5.63
2022-12-08T13:08:00.697Z,6.30
2022-12-08T13:13:17.222Z,6.45
2022-12-08T13:18:27.177Z,6.38
2022-12-08T13:23:37.486Z,6.38
2022-12-08T13:28:31.955Z,6.57
2022-12-08T13:33:41.482Z,6.70
2022-12-08T13:38:38.234Z,6.63
2022-12-08T13:44:31.204Z,6.20
2022-12-08T13:50:54.879Z,6.15
2022-12-08T13:56:05.419Z,6.20
2022-12-08T13:59:54.059Z,6.43
2022-12-08T14:05:17.306Z,6.25
2022-12-08T14:10:02.350Z,6.47
2022-12-08T14:15:05.253Z,6.50
2022-12-08T14:19:59.989Z,6.63
2022-12-08T14:24:55.732Z,7.03
2022-12-08T14:29:57.610Z,6.65
2022-12-08T14:35:01.461Z,6.40
2022-12-08T14:40:05.615Z,6.25
2022-12-08T14:45:03.634Z,5.97
2022-12-08T14:49:57.040Z,7.22
2022-12-08T14:54:51.637Z,6.55
2022-12-08T14:59:47.341Z,6.50
2022-12-08T15:04:43.807Z,7.30
2022-12-08T15:09:40.509Z,7.15
2022-12-08T15:14:37.645Z,6.68
2022-12-08T15:19:35.057Z,5.97
2022-12-08T15:24:30.798Z,6.75
2022-12-08T15:29:30.696Z,6.10
2022-12-08T15:34:23.323Z,6.65
2022-12-08T15:39:21.457Z,6.47
2022-12-08T15:44:14.776Z,6.72
2022-12-08T15:49:23.046Z,6.90
2022-12-08T15:54:17.022Z,6.90
2022-12-08T15:59:19.610Z,6.80
2022-12-08T16:09:34.370Z,6.97
2022-12-08T16:19:41.923Z,6.95
2022-12-08T16:24:35.795Z,6.43
2022-12-08T16:29:30.233Z,6.63
2022-12-08T16:34:25.145Z,7.35
2022-12-08T16:39:18.942Z,6.35
2022-12-08T16:44:12.420Z,6.15
2022-12-08T16:49:09.014Z,6.80
2022-12-08T16:54:03.182Z,6.25
2022-12-08T16:58:57.258Z,6.80
2022-12-08T17:04:22.364Z,7.57
2022-12-08T17:09:05.390Z,6.70
2022-12-08T17:13:59.650Z,6.60
2022-12-08T17:19:13.363Z,7.03
2022-12-08T17:24:08.041Z,6.90
2022-12-08T17:29:03.521Z,6.65
2022-12-08T17:33:59.465Z,7.68
2022-12-08T17:38:52.855Z,7.57
2022-12-08T17:43:46.742Z,8.13
2022-12-08T17:48:40.565Z,7.72
2022-12-08T17:53:37.527Z,7.65
2022-12-08T17:58:31.982Z,8.13
2022-12-08T18:03:25.713Z,8.10
2022-12-08T18:08:19.217Z,7.45
2022-12-08T18:13:13.244Z,7.57
2022-12-08T18:18:07.190Z,8.00
2022-12-08T18:23:00.815Z,8.00
2022-12-08T18:27:54.971Z,7.63
2022-12-08T18:32:50.724Z,7.75
2022-12-08T18:37:47.474Z,7.13
2022-12-08T18:42:40.954Z,7.50
2022-12-08T18:47:36.259Z,7.72
2022-12-08T18:52:32.313Z,7.82
2022-12-08T18:57:26.258Z,7.47
2022-12-08T19:02:20.757Z,8.15
2022-12-08T19:07:15.091Z,7.63
2022-12-08T19:12:09.344Z,7.82
2022-12-08T19:17:02.387Z,7.97
2022-12-08T19:21:56.356Z,7.00
2022-12-08T19:26:50.750Z,7.68
2022-12-08T19:31:44.674Z,7.28
2022-12-08T19:36:42.884Z,7.75
2022-12-08T19:41:56.114Z,7.72
2022-12-08T19:46:50.107Z,7.45
2022-12-08T19:51:44.040Z,7.57
2022-12-08T19:56:37.838Z,8.15
2022-12-08T20:01:31.839Z,7.45
2022-12-08T20:06:27.321Z,7.13
2022-12-08T20:11:21.823Z,7.72
2022-12-08T20:16:16.295Z,7.70
2022-12-08T20:21:11.746Z,6.88
2022-12-08T20:26:06.074Z,6.97
2022-12-08T20:30:59.501Z,7.80
2022-12-08T20:36:01.367Z,7.25
2022-12-08T20:40:55.539Z,7.50
2022-12-08T20:45:48.139Z,7.35
2022-12-08T20:50:41.800Z,6.82
2022-12-08T20:55:36.409Z,15.75
2022-12-08T21:00:29.647Z,18.52
2022-12-08T21:05:23.876Z,24.20
2022-12-08T21:10:18.012Z,26.13
2022-12-08T21:15:12.533Z,23.05
2022-12-08T21:20:08.666Z,20.13
2022-12-08T21:25:02.398Z,19.73
2022-12-08T21:29:55.868Z,17.33
2022-12-08T21:34:49.555Z,16.85
2022-12-08T21:39:43.224Z,16.02
2022-12-08T21:44:37.863Z,15.10
2022-12-08T21:49:31.140Z,15.35
2022-12-08T21:54:25.613Z,14.50
2022-12-08T21:59:21.253Z,13.77
2022-12-08T22:04:25.174Z,12.38
2022-12-08T22:09:20.534Z,13.25
2022-12-08T22:14:19.320Z,12.55
2022-12-08T22:19:19.582Z,11.02
2022-12-08T22:24:18.683Z,11.57
2022-12-08T22:29:14.859Z,10.60
2022-12-08T22:34:13.955Z,10.52
2022-12-08T22:39:15.956Z,9.65
2022-12-08T22:44:15.210Z,9.38
2022-12-08T22:49:11.210Z,10.13
2022-12-08T22:54:11.270Z,9.90
2022-12-08T22:59:11.902Z,9.00
2022-12-08T23:04:17.634Z,9.07
2022-12-08T23:09:14.564Z,9.45
2022-12-08T23:14:08.237Z,9.35
2022-12-08T23:19:03.684Z,9.38
2022-12-08T23:23:58.764Z,9.13
2022-12-08T23:28:53.297Z,8.55
2022-12-08T23:33:47.855Z,8.82
2022-12-08T23:38:41.107Z,8.30
2022-12-08T23:43:35.473Z,8.02
2022-12-08T23:48:33.512Z,8.45
2022-12-08T23:53:28.441Z,7.78
2022-12-08T23:58:22.236Z,7.82
